Terminal Aerodrome Forecast
Issued by NWS

Home | Current Version | Previous Version | Text Only | Print | Product List | Glossary Off
Versions: 1 2 3 4 5 6 7 8 9 10 11 12 13 14 15

191
FTUS43 KABR 252323
TAFPIR
TAF
KPIR 252323Z 2600/2624 35011KT P6SM SKC
     FM260300 VRB05KT P6SM SCT250
     FM261700 16009KT P6SM -SHRA VCTS OVC060CB=

USA.gov is the U.S. government's official web portal to all federal, state and local government web resources and services.